Time;durP1;ratioP1;P1;durP2;ratioP2;P2;SDS_P1;SDS_P2;PMS_P1;PMS_P2;Temp;Humidity;BMP_temperature;BMP_pressure;BME280_temperature;BME280_humidity;BME280_pressure;Samples;Min_cycle;Max_cycle;Signal;HPM_P1;HPM_P2
2023/03/28 03:00:42;;;;;;;13.90;12.97;;;-0.80;99.90;;;;;;5781351;23;20832;-78
2023/03/28 03:03:12;;;;;;;16.57;15.67;;;-0.80;99.90;;;;;;4944823;29;20217;-78
2023/03/28 03:05:38;;;;;;;13.77;12.60;;;-0.80;99.90;;;;;;4929909;29;20202;-78
2023/03/28 03:08:04;;;;;;;12.33;11.53;;;-0.90;99.90;;;;;;4944607;29;20197;-78
2023/03/28 03:10:30;;;;;;;11.47;10.77;;;-0.80;99.90;;;;;;4922813;29;20305;-79
2023/03/28 03:12:56;;;;;;;14.07;13.17;;;-0.90;99.90;;;;;;4905610;29;20217;-78
2023/03/28 03:15:21;;;;;;;14.90;14.00;;;-0.90;99.90;;;;;;4918625;29;20207;-78
2023/03/28 03:17:47;;;;;;;14.80;13.80;;;-0.90;99.90;;;;;;4920422;29;20608;-77
2023/03/28 03:20:13;;;;;;;14.03;13.13;;;-0.90;99.90;;;;;;4899178;29;20199;-78
2023/03/28 03:22:39;;;;;;;13.77;12.67;;;-1.00;99.90;;;;;;4899771;29;20194;-79
2023/03/28 03:25:06;;;;;;;22.93;21.77;;;-1.00;99.90;;;;;;4916435;29;20658;-78
2023/03/28 03:27:36;;;;;;;24.87;23.27;;;-1.10;99.90;;;;;;4899137;29;20254;-76
2023/03/28 03:30:03;;;;;;;20.63;19.23;;;-1.10;99.90;;;;;;4898166;29;20218;-77
2023/03/28 03:32:29;;;;;;;33.80;31.57;;;-1.10;99.90;;;;;;4915323;29;20687;-77
2023/03/28 03:34:55;;;;;;;33.23;31.33;;;-1.20;99.90;;;;;;4898481;29;20191;-76
2023/03/28 03:37:21;;;;;;;28.10;26.53;;;-1.20;99.90;;;;;;4915442;29;20242;-76
2023/03/28 03:39:47;;;;;;;37.37;35.37;;;-1.30;99.90;;;;;;4915306;29;20191;-77
2023/03/28 03:42:12;;;;;;;21.50;19.90;;;-1.20;99.90;;;;;;4915243;29;20682;-77
2023/03/28 03:44:38;;;;;;;19.77;18.67;;;-1.20;99.90;;;;;;4915651;29;20194;-77
2023/03/28 03:47:04;;;;;;;37.37;35.37;;;-1.30;99.90;;;;;;4898891;29;20584;-76
2023/03/28 03:49:30;;;;;;;27.40;25.87;;;-1.20;99.90;;;;;;4915390;29;20290;-77
2023/03/28 03:51:56;;;;;;;27.43;25.93;;;-1.30;99.90;;;;;;4903629;29;20227;-76
2023/03/28 03:54:22;;;;;;;26.40;24.80;;;-1.40;99.90;;;;;;4923361;29;20599;-77
2023/03/28 03:56:48;;;;;;;26.00;24.67;;;-1.40;99.90;;;;;;4906503;29;20278;-76
2023/03/28 03:59:15;;;;;;;26.03;24.50;;;-1.40;99.90;;;;;;4917968;29;20395;-77
2023/03/28 04:01:42;;;;;;;30.43;28.40;;;-1.50;99.90;;;;;;4898910;29;20231;-76
2023/03/28 04:04:10;;;;;;;27.00;25.37;;;-1.60;99.90;;;;;;4898752;29;20573;-76
2023/03/28 04:06:37;;;;;;;19.50;17.93;;;-1.60;99.90;;;;;;4898552;29;20191;-77
2023/03/28 04:09:04;;;;;;;21.40;20.20;;;-1.70;99.90;;;;;;4899852;29;20742;-77
2023/03/28 04:11:30;;;;;;;15.23;13.83;;;-1.70;99.90;;;;;;4909061;29;20225;-77
2023/03/28 04:13:56;;;;;;;15.03;13.83;;;-1.70;99.90;;;;;;4904481;29;20476;-79
2023/03/28 04:16:22;;;;;;;13.43;12.67;;;-1.70;99.90;;;;;;4907147;29;20194;-77
2023/03/28 04:18:51;;;;;;;12.60;11.67;;;-1.70;99.90;;;;;;4922335;29;20265;-76
2023/03/28 04:21:26;;;;;;;10.10;9.07;;;-1.70;99.90;;;;;;4923039;29;20286;-77
2023/03/28 04:23:52;;;;;;;11.03;9.97;;;-1.80;99.90;;;;;;4909771;29;20718;-76
2023/03/28 04:26:24;;;;;;;10.27;9.43;;;-1.90;99.90;;;;;;4908432;29;20297;-77
2023/03/28 04:28:54;;;;;;;9.10;8.40;;;-1.90;99.90;;;;;;4903741;29;20202;-77
2023/03/28 04:31:21;;;;;;;10.57;9.53;;;-1.90;99.90;;;;;;4903714;29;20223;-77
2023/03/28 04:33:48;;;;;;;10.93;10.33;;;-2.00;99.90;;;;;;4902691;29;20278;-76
2023/03/28 04:36:15;;;;;;;15.33;13.80;;;-2.00;99.90;;;;;;4902002;29;20179;-76
2023/03/28 04:38:44;;;;;;;18.47;16.50;;;-2.00;99.90;;;;;;4924079;29;20183;-79
2023/03/28 04:41:12;;;;;;;20.87;14.47;;;-2.00;99.90;;;;;;4918905;29;20274;-79
2023/03/28 04:43:38;;;;;;;15.47;13.67;;;-2.00;99.90;;;;;;4903036;29;20242;-79
2023/03/28 04:46:05;;;;;;;18.57;12.03;;;-2.00;99.90;;;;;;4902688;29;20269;-79
2023/03/28 04:48:30;;;;;;;11.50;10.57;;;-2.00;99.90;;;;;;4902735;29;20226;-75
2023/03/28 04:50:56;;;;;;;12.63;11.67;;;-2.00;99.90;;;;;;4902265;29;20270;-77
2023/03/28 04:53:22;;;;;;;12.07;11.13;;;-2.00;99.90;;;;;;4918067;29;20188;-79
2023/03/28 04:55:49;;;;;;;12.33;11.43;;;-2.10;99.90;;;;;;4901225;29;20555;-78
2023/03/28 04:58:19;;;;;;;13.93;12.87;;;-2.10;99.90;;;;;;4901912;29;20254;-77
2023/03/28 05:00:45;;;;;;;11.27;10.37;;;-2.20;99.90;;;;;;4901919;29;20226;-78
2023/03/28 05:03:13;;;;;;;10.63;9.90;;;-2.20;99.90;;;;;;4918564;29;20213;-77
2023/03/28 05:05:40;;;;;;;11.43;9.40;;;-2.10;99.90;;;;;;4901746;29;20677;-78
2023/03/28 05:08:05;;;;;;;10.43;9.53;;;-2.10;99.90;;;;;;4901538;29;20274;-77
2023/03/28 05:10:31;;;;;;;8.73;8.13;;;-2.00;99.90;;;;;;4900916;29;20306;-77
2023/03/28 05:12:57;;;;;;;11.33;9.10;;;-2.10;99.90;;;;;;4918507;29;20705;-78
2023/03/28 05:15:23;;;;;;;11.20;10.23;;;-2.10;99.90;;;;;;4901878;29;20273;-77
2023/03/28 05:17:49;;;;;;;14.97;10.07;;;-2.10;99.90;;;;;;4918310;29;20183;-78
2023/03/28 05:20:17;;;;;;;10.73;9.83;;;-2.20;99.90;;;;;;4900722;29;20274;-77
2023/03/28 05:22:43;;;;;;;12.23;11.00;;;-2.20;99.90;;;;;;4901489;29;20191;-78
2023/03/28 05:25:10;;;;;;;11.30;9.93;;;-2.20;99.90;;;;;;4918132;29;20199;-77
2023/03/28 05:27:37;;;;;;;13.57;11.00;;;-2.10;99.90;;;;;;4918262;29;20183;-77
2023/03/28 05:30:07;;;;;;;9.90;9.20;;;-2.00;99.90;;;;;;4917976;29;20724;-78
2023/03/28 05:32:33;;;;;;;12.23;11.07;;;-1.90;99.90;;;;;;4918475;29;20211;-79
2023/03/28 05:34:59;;;;;;;16.07;11.43;;;-1.70;99.90;;;;;;4901448;29;20214;-77
2023/03/28 05:37:24;;;;;;;11.97;10.77;;;-1.60;99.90;;;;;;4901283;29;20179;-77
2023/03/28 05:39:50;;;;;;;11.57;10.67;;;-1.40;99.90;;;;;;4917688;29;20183;-78
2023/03/28 05:42:16;;;;;;;12.20;11.10;;;-1.20;99.90;;;;;;4901662;29;20199;-77
2023/03/28 05:44:42;;;;;;;13.80;12.93;;;-0.90;99.90;;;;;;4918857;29;20183;-77
2023/03/28 05:47:08;;;;;;;11.40;10.20;;;-0.80;99.90;;;;;;4901878;29;20183;-77
2023/03/28 05:49:33;;;;;;;12.83;11.93;;;-0.70;99.90;;;;;;4925309;29;20655;-77
2023/03/28 05:51:59;;;;;;;21.47;19.63;;;-0.60;99.90;;;;;;4907523;29;20207;-77
2023/03/28 05:54:25;;;;;;;12.17;11.07;;;-0.50;99.90;;;;;;4907740;29;20266;-77
2023/03/28 05:56:51;;;;;;;10.63;9.93;;;-0.40;99.90;;;;;;4923384;29;20243;-77
2023/03/28 05:59:17;;;;;;;8.53;7.83;;;-0.30;99.90;;;;;;4923436;29;20186;-77
2023/03/28 06:01:45;;;;;;;10.87;8.20;;;-0.30;99.90;;;;;;4907790;29;20273;-77
2023/03/28 06:04:11;;;;;;;8.67;7.80;;;-0.20;99.90;;;;;;4920143;29;20659;-77
2023/03/28 06:06:37;;;;;;;10.63;7.53;;;-0.20;99.90;;;;;;4917764;29;20190;-77
2023/03/28 06:09:03;;;;;;;10.37;9.37;;;-0.10;99.90;;;;;;4917670;29;20254;-77
2023/03/28 06:11:29;;;;;;;10.77;9.73;;;-0.10;99.90;;;;;;4921890;29;20683;-76
2023/03/28 06:13:55;;;;;;;9.57;8.57;;;0.00;99.90;;;;;;4901708;29;20686;-77
2023/03/28 06:16:20;;;;;;;9.57;8.57;;;0.10;99.90;;;;;;4901513;29;20544;-77
2023/03/28 06:18:47;;;;;;;12.13;10.70;;;0.20;99.90;;;;;;4900328;29;20222;-77
2023/03/28 06:21:12;;;;;;;10.37;9.23;;;0.30;99.90;;;;;;4916813;29;20214;-77
2023/03/28 06:23:38;;;;;;;9.87;8.97;;;0.30;99.90;;;;;;4900068;29;20533;-77
2023/03/28 06:26:05;;;;;;;12.70;9.83;;;0.50;99.90;;;;;;4900231;29;20199;-77
2023/03/28 06:28:31;;;;;;;13.73;9.97;;;0.60;99.90;;;;;;4900520;29;20187;-78
2023/03/28 06:30:56;;;;;;;10.83;9.83;;;0.60;99.90;;;;;;4917809;29;20228;-78
2023/03/28 06:33:22;;;;;;;10.93;10.07;;;0.80;99.90;;;;;;4917507;29;20378;-78
2023/03/28 06:35:48;;;;;;;12.63;11.43;;;0.90;99.90;;;;;;4917177;29;20186;-77
2023/03/28 06:38:13;;;;;;;21.53;19.93;;;1.10;99.90;;;;;;4900612;29;20186;-78
2023/03/28 06:40:39;;;;;;;20.70;18.90;;;1.30;99.90;;;;;;4917916;29;20210;-78
2023/03/28 06:43:05;;;;;;;15.30;13.67;;;1.70;99.90;;;;;;4918459;29;20190;-78
2023/03/28 06:45:31;;;;;;;10.50;9.50;;;2.40;99.90;;;;;;4902105;29;20183;-78
2023/03/28 06:47:56;;;;;;;12.03;10.93;;;3.20;99.90;;;;;;4902204;29;20556;-78
2023/03/28 06:50:22;;;;;;;12.83;8.77;;;4.00;99.90;;;;;;4901535;29;20584;-77
2023/03/28 06:52:48;;;;;;;9.70;8.77;;;4.50;99.90;;;;;;4919203;29;20198;-78
2023/03/28 06:55:14;;;;;;;10.27;9.23;;;4.90;99.90;;;;;;4902139;29;20195;-78
2023/03/28 06:57:40;;;;;;;9.10;8.30;;;5.40;99.90;;;;;;4902627;29;20179;-78
2023/03/28 07:00:07;;;;;;;9.33;8.17;;;5.80;99.90;;;;;;4902107;29;20242;-78
2023/03/28 07:02:33;;;;;;;10.33;9.63;;;6.20;99.90;;;;;;4902232;29;20230;-78
2023/03/28 07:04:59;;;;;;;9.90;9.00;;;6.50;99.90;;;;;;4902794;29;20189;-78
2023/03/28 07:07:24;;;;;;;9.50;8.63;;;6.80;99.90;;;;;;4902265;29;20278;-78
2023/03/28 07:09:53;;;;;;;14.60;13.20;;;7.00;99.90;;;;;;4901435;29;20218;-78
2023/03/28 07:12:19;;;;;;;10.73;7.63;;;7.10;99.90;;;;;;4918513;29;20199;-78
2023/03/28 07:14:46;;;;;;;17.10;10.27;;;7.60;99.90;;;;;;4902093;29;20187;-78
2023/03/28 07:17:12;;;;;;;12.07;10.97;;;7.90;99.90;;;;;;4922449;29;20207;-77
2023/03/28 07:19:38;;;;;;;13.57;9.83;;;8.40;99.90;;;;;;4906845;29;20734;-78
2023/03/28 07:22:04;;;;;;;14.87;13.70;;;8.50;99.90;;;;;;4918701;29;20210;-78
2023/03/28 07:24:29;;;;;;;13.47;12.13;;;8.60;99.90;;;;;;4917830;29;20183;-78
2023/03/28 07:26:55;;;;;;;13.20;12.07;;;8.50;99.90;;;;;;4910254;29;20206;-77
2023/03/28 07:29:21;;;;;;;12.00;10.63;;;8.50;99.90;;;;;;4901675;29;20278;-78
2023/03/28 07:31:47;;;;;;;8.67;7.87;;;8.90;99.90;;;;;;4904435;29;20252;-77
2023/03/28 07:34:17;;;;;;;8.00;7.27;;;9.00;99.90;;;;;;4924276;29;20531;-77
2023/03/28 07:36:43;;;;;;;10.27;7.60;;;9.20;99.90;;;;;;4906974;29;20179;-78
2023/03/28 07:39:09;;;;;;;7.93;5.90;;;9.60;99.90;;;;;;4906178;29;20250;-77
2023/03/28 07:41:35;;;;;;;6.70;5.60;;;9.70;99.90;;;;;;4903901;29;20218;-78
2023/03/28 07:44:00;;;;;;;6.43;5.90;;;9.70;99.90;;;;;;4900866;29;20206;-78
2023/03/28 07:46:26;;;;;;;9.50;6.20;;;9.80;99.90;;;;;;4910271;29;20187;-78
2023/03/28 07:48:54;;;;;;;11.03;6.90;;;10.10;99.90;;;;;;4905151;29;20190;-78
2023/03/28 07:51:20;;;;;;;7.77;6.70;;;10.20;99.90;;;;;;4911488;29;20467;-78
2023/03/28 07:53:46;;;;;;;8.23;6.90;;;10.50;99.90;;;;;;4900478;29;20190;-78
2023/03/28 07:56:12;;;;;;;7.60;5.80;;;10.20;99.90;;;;;;4917111;29;20179;-77
2023/03/28 07:58:39;;;;;;;5.93;5.43;;;10.30;99.90;;;;;;4903083;29;20175;-78
2023/03/28 08:01:07;;;;;;;7.77;6.10;;;10.30;99.90;;;;;;4905728;29;20233;-78
2023/03/28 08:03:34;;;;;;;8.77;5.30;;;10.70;99.90;;;;;;4910154;29;20215;-77
2023/03/28 08:06:04;;;;;;;10.57;6.23;;;10.90;99.90;;;;;;4908148;29;20183;-77
2023/03/28 08:08:30;;;;;;;9.00;5.57;;;10.90;99.90;;;;;;4905663;29;20179;-78
2023/03/28 08:10:57;;;;;;;11.10;6.20;;;10.90;99.90;;;;;;4900521;29;20229;-78
2023/03/28 08:13:23;;;;;;;6.47;5.77;;;11.50;99.90;;;;;;4900204;29;20537;-78
2023/03/28 08:15:50;;;;;;;5.67;5.00;;;11.60;99.90;;;;;;4923017;29;20187;-78
2023/03/28 08:18:19;;;;;;;6.77;6.13;;;10.70;99.90;;;;;;4910977;29;20243;-78
2023/03/28 08:20:49;;;;;;;6.50;5.80;;;9.30;99.90;;;;;;4929090;29;20208;-79
2023/03/28 08:23:15;;;;;;;8.80;8.00;;;8.80;99.90;;;;;;4916796;29;20206;-78
2023/03/28 08:25:42;;;;;;;8.93;8.13;;;8.60;99.90;;;;;;4916605;29;20190;-78
2023/03/28 08:28:08;;;;;;;7.97;5.97;;;8.00;99.90;;;;;;4916774;29;20187;-79
2023/03/28 08:30:34;;;;;;;6.90;5.90;;;8.00;99.90;;;;;;4916258;29;20231;-78
2023/03/28 08:33:03;;;;;;;7.10;5.70;;;7.90;99.90;;;;;;4916127;29;20536;-78
2023/03/28 08:35:30;;;;;;;8.90;6.73;;;7.70;99.90;;;;;;4916347;29;20262;-79
2023/03/28 08:37:55;;;;;;;5.43;4.87;;;8.20;99.90;;;;;;4916046;29;20206;-78
2023/03/28 08:40:24;;;;;;;5.83;5.33;;;8.90;99.90;;;;;;4899164;29;20656;-78
2023/03/28 08:43:28;;;;;;;10.33;5.37;;;8.60;99.90;;;;;;4898976;29;20194;-78
2023/03/28 08:45:58;;;;;;;9.37;6.57;;;8.10;99.90;;;;;;4908176;29;20190;-78
2023/03/28 08:48:43;;;;;;;7.23;6.13;;;8.00;99.90;;;;;;4898389;29;20194;-78
2023/03/28 08:51:27;;;;;;;9.70;6.07;;;8.50;99.90;;;;;;4899311;29;20264;-78
2023/03/28 08:54:07;;;;;;;5.33;4.80;;;8.80;99.90;;;;;;4921863;29;20206;-78
2023/03/28 08:56:38;;;;;;;9.83;6.10;;;8.90;99.90;;;;;;4923902;29;20206;-78
2023/03/28 08:59:11;;;;;;;7.60;6.90;;;9.40;99.90;;;;;;4907481;29;20183;-79
2023/03/28 09:01:38;;;;;;;5.50;5.10;;;9.70;99.90;;;;;;4922813;29;20215;-77
2023/03/28 09:04:04;;;;;;;5.10;4.57;;;10.00;99.90;;;;;;4927596;29;20187;-77
2023/03/28 09:06:39;;;;;;;5.17;4.70;;;10.00;99.90;;;;;;4907792;29;20187;-78
2023/03/28 09:09:20;;;;;;;5.17;4.70;;;10.30;99.80;;;;;;4904086;29;20190;-77
2023/03/28 09:12:07;;;;;;;7.90;4.60;;;10.60;99.90;;;;;;4910195;29;20273;-77
2023/03/28 09:15:05;;;;;;;7.87;5.07;;;10.90;99.90;;;;;;4931029;23;20228;-85
2023/03/28 09:17:46;;;;;;;5.17;4.77;;;11.00;99.90;;;;;;4931291;29;20179;-85
2023/03/28 09:20:35;;;;;;;5.53;5.00;;;10.50;99.90;;;;;;4925931;29;20269;-85
2023/03/28 09:23:38;;;;;;;5.67;5.10;;;10.40;99.90;;;;;;4927508;29;20281;-85
2023/03/28 09:26:16;;;;;;;5.47;5.07;;;10.60;99.90;;;;;;4912985;29;20238;-84
2023/03/28 09:28:54;;;;;;;7.13;5.73;;;11.30;99.30;;;;;;4909210;29;20254;-85
2023/03/28 09:31:26;;;;;;;7.80;5.90;;;11.80;96.80;;;;;;4906577;29;20257;-85
2023/03/28 09:33:57;;;;;;;6.70;6.30;;;11.90;95.50;;;;;;4924046;29;20600;-86
2023/03/28 09:36:29;;;;;;;13.00;12.17;;;12.50;96.50;;;;;;4904920;29;20636;-83
2023/03/28 09:39:23;;;;;;;11.27;10.30;;;12.60;93.30;;;;;;4910601;29;20187;-84
2023/03/28 09:42:03;;;;;;;14.50;13.40;;;11.90;94.60;;;;;;4905423;29;20229;-82
2023/03/28 09:44:39;;;;;;;7.77;7.07;;;11.20;94.20;;;;;;4909695;29;20286;-84
2023/03/28 09:47:10;;;;;;;7.50;6.90;;;11.40;96.50;;;;;;4940172;29;20183;-82
2023/03/28 09:49:36;;;;;;;8.90;8.30;;;11.30;94.70;;;;;;4939243;29;20183;-83
2023/03/28 09:52:11;;;;;;;14.47;13.27;;;12.20;93.10;;;;;;4921858;29;20190;-84
2023/03/28 09:54:40;;;;;;;13.40;12.60;;;13.10;90.90;;;;;;4905154;29;20217;-84
2023/03/28 09:57:06;;;;;;;9.17;8.47;;;13.70;87.50;;;;;;4905491;29;20235;-85
2023/03/28 09:59:34;;;;;;;7.87;6.90;;;14.10;82.40;;;;;;4904093;29;20183;-84
2023/03/28 10:02:02;;;;;;;4.93;4.23;;;14.50;82.00;;;;;;4903266;29;20279;-84
2023/03/28 10:04:28;;;;;;;5.33;4.70;;;14.70;79.30;;;;;;4903541;29;20203;-84
2023/03/28 10:07:15;;;;;;;7.37;5.80;;;13.30;85.10;;;;;;4903697;29;20191;-85
2023/03/28 10:09:50;;;;;;;7.97;4.03;;;13.70;85.30;;;;;;4878439;29;20203;-84
2023/03/28 10:12:35;;;;;;;4.77;4.30;;;14.20;84.60;;;;;;4907230;29;20186;-85
2023/03/28 10:15:01;;;;;;;8.07;5.23;;;14.50;81.30;;;;;;4905947;29;20240;-84
2023/03/28 10:17:28;;;;;;;11.27;10.10;;;14.90;78.70;;;;;;4907499;29;20215;-84
2023/03/28 10:20:00;;;;;;;8.77;7.97;;;15.30;70.30;;;;;;4904463;29;20693;-84
2023/03/28 10:22:32;;;;;;;8.10;7.50;;;14.70;69.30;;;;;;4904989;29;20183;-84
2023/03/28 10:24:59;;;;;;;8.40;7.70;;;14.10;74.20;;;;;;4912071;29;20207;-84
2023/03/28 10:27:36;;;;;;;9.60;8.90;;;13.80;74.60;;;;;;4904183;29;20179;-84
2023/03/28 10:30:25;;;;;;;6.27;5.97;;;13.90;73.40;;;;;;4903072;29;20175;-83
2023/03/28 10:33:09;;;;;;;9.87;9.07;;;14.20;75.60;;;;;;4903176;29;20285;-84
2023/03/28 10:35:35;;;;;;;9.77;8.87;;;13.80;69.70;;;;;;4903195;29;20245;-85
2023/03/28 10:38:04;;;;;;;9.83;8.90;;;13.90;69.90;;;;;;4926898;29;20183;-85
2023/03/28 10:40:31;;;;;;;9.60;8.73;;;13.80;67.60;;;;;;4922748;29;20211;-84
2023/03/28 10:42:58;;;;;;;9.83;9.10;;;14.10;71.90;;;;;;4908931;29;20207;-84
2023/03/28 10:45:36;;;;;;;9.63;8.93;;;14.50;69.60;;;;;;4905290;29;20301;-85
2023/03/28 10:48:15;;;;;;;10.13;9.43;;;14.30;70.40;;;;;;4904076;29;20675;-85
2023/03/28 10:50:49;;;;;;;10.90;10.00;;;13.70;75.00;;;;;;4903629;29;20198;-85
2023/03/28 10:53:43;;;;;;;10.40;9.77;;;13.60;74.10;;;;;;4904029;29;20198;-85
2023/03/28 10:56:21;;;;;;;8.77;8.03;;;14.00;72.30;;;;;;4905938;29;20192;-84
2023/03/28 10:59:25;;;;;;;8.67;8.07;;;14.70;67.90;;;;;;4940376;29;20274;-83
2023/03/28 11:02:18;;;;;;;8.70;8.00;;;14.80;64.20;;;;;;4924337;29;20225;-83
2023/03/28 11:05:15;;;;;;;9.43;8.53;;;14.90;63.30;;;;;;4924346;29;20222;-83
2023/03/28 11:08:09;;;;;;;13.27;12.27;;;14.70;63.00;;;;;;4917546;29;20194;-83
2023/03/28 11:10:43;;;;;;;10.43;9.50;;;14.80;60.00;;;;;;4922192;29;20198;-85
2023/03/28 11:13:08;;;;;;;11.53;10.73;;;15.40;61.30;;;;;;4908143;29;20222;-84
2023/03/28 11:15:45;;;;;;;12.33;11.13;;;15.50;62.00;;;;;;4905025;29;20229;-84
2023/03/28 11:18:11;;;;;;;10.80;10.00;;;15.20;62.80;;;;;;4921624;29;20242;-85
2023/03/28 11:21:11;;;;;;;12.33;11.53;;;15.50;63.90;;;;;;4903860;29;20218;-85
2023/03/28 11:23:44;;;;;;;10.57;9.63;;;14.60;63.90;;;;;;4904125;29;20715;-85
2023/03/28 11:26:14;;;;;;;11.37;10.50;;;14.40;63.10;;;;;;4906947;29;20238;-85
2023/03/28 11:29:08;;;;;;;11.03;10.40;;;13.30;65.10;;;;;;4921973;29;20175;-85
2023/03/28 11:31:39;;;;;;;10.73;9.80;;;12.30;67.90;;;;;;4925899;29;20191;-84
2023/03/28 11:34:34;;;;;;;9.60;9.00;;;12.00;69.70;;;;;;4918186;29;20254;-85
2023/03/28 11:37:16;;;;;;;12.93;11.97;;;12.10;69.20;;;;;;4909856;29;20191;-85
2023/03/28 11:39:53;;;;;;;8.67;7.97;;;11.80;69.80;;;;;;4920387;29;20191;-84
2023/03/28 11:42:43;;;;;;;7.87;7.27;;;12.60;70.80;;;;;;4903010;29;20187;-84
2023/03/28 11:45:33;;;;;;;10.10;9.20;;;13.60;68.10;;;;;;4903530;29;20226;-86
2023/03/28 11:48:17;;;;;;;9.77;9.07;;;14.90;65.20;;;;;;4903050;29;20190;-85
2023/03/28 11:50:52;;;;;;;11.33;10.63;;;16.60;61.40;;;;;;4919182;29;20690;-85
2023/03/28 11:53:32;;;;;;;8.20;7.73;;;16.70;59.00;;;;;;4919313;29;20282;-84
2023/03/28 11:56:05;;;;;;;8.93;8.50;;;16.60;57.20;;;;;;4902304;29;20238;-85
2023/03/28 11:58:38;;;;;;;10.07;9.53;;;16.30;59.60;;;;;;4903211;29;20194;-85
2023/03/28 12:01:12;;;;;;;9.77;9.07;;;15.40;61.10;;;;;;4908518;29;20214;-85
2023/03/28 12:03:57;;;;;;;10.73;9.87;;;15.30;61.40;;;;;;4905922;29;20178;-85
2023/03/28 12:06:41;;;;;;;9.27;8.77;;;15.50;59.00;;;;;;4910024;29;20179;-84
2023/03/28 12:10:02;;;;;;;9.57;8.67;;;15.80;60.50;;;;;;4907081;29;20197;-85
2023/03/28 12:12:49;;;;;;;9.47;8.87;;;15.90;59.10;;;;;;4864215;29;20196;-82
2023/03/28 12:15:20;;;;;;;9.40;8.80;;;16.20;59.90;;;;;;4882239;29;20219;-83
2023/03/28 12:17:55;;;;;;;7.30;6.67;;;16.40;59.00;;;;;;4905149;29;20203;-85
2023/03/28 12:20:44;;;;;;;6.80;6.20;;;16.50;57.40;;;;;;4902010;29;20214;-85
2023/03/28 12:23:39;;;;;;;7.17;5.30;;;16.80;56.60;;;;;;4900718;29;20286;-84
2023/03/28 12:26:20;;;;;;;5.57;5.17;;;16.10;55.50;;;;;;4901210;29;20233;-85
2023/03/28 12:28:57;;;;;;;6.33;5.83;;;15.90;55.90;;;;;;4901433;29;20207;-85
2023/03/28 12:31:34;;;;;;;5.60;5.13;;;16.80;55.70;;;;;;4904310;29;20197;-84
2023/03/28 12:34:09;;;;;;;5.00;4.70;;;16.60;56.00;;;;;;4906016;29;20191;-84
2023/03/28 12:36:47;;;;;;;5.50;5.00;;;17.20;54.30;;;;;;4905648;29;20186;-85
2023/03/28 12:39:33;;;;;;;5.17;4.50;;;17.50;53.20;;;;;;4904842;29;20208;-85
2023/03/28 12:42:02;;;;;;;8.07;6.70;;;17.30;52.20;;;;;;4905518;29;20236;-85
2023/03/28 12:44:37;;;;;;;5.33;4.67;;;18.00;54.40;;;;;;4905584;29;20203;-85
2023/03/28 12:47:10;;;;;;;4.70;4.40;;;18.40;53.20;;;;;;4906067;29;20183;-85
2023/03/28 12:49:43;;;;;;;4.60;4.20;;;18.50;52.10;;;;;;4905775;29;20183;-83
2023/03/28 12:52:23;;;;;;;5.00;4.50;;;18.90;49.40;;;;;;4923340;29;20242;-84
2023/03/28 12:54:55;;;;;;;8.30;4.30;;;19.10;50.70;;;;;;4907083;29;20234;-84
2023/03/28 12:57:39;;;;;;;5.97;4.83;;;18.00;50.90;;;;;;4906223;29;20254;-84
2023/03/28 13:00:24;;;;;;;4.20;3.90;;;17.20;53.30;;;;;;4905366;29;20211;-83
2023/03/28 13:03:37;;;;;;;4.47;4.17;;;17.30;51.80;;;;;;4906116;29;20218;-84
2023/03/28 13:06:23;;;;;;;5.40;4.90;;;18.20;52.10;;;;;;4876200;29;20214;-84
2023/03/28 13:09:41;;;;;;;4.13;3.80;;;19.30;49.70;;;;;;4909894;29;20187;-83
2023/03/28 13:12:28;;;;;;;4.73;4.33;;;19.50;48.50;;;;;;4896125;29;20183;-83
2023/03/28 13:14:59;;;;;;;4.70;4.33;;;18.80;47.40;;;;;;4913464;29;20587;-84
2023/03/28 13:17:31;;;;;;;5.37;4.03;;;18.50;47.50;;;;;;4911936;29;20249;-82
2023/03/28 13:20:09;;;;;;;5.07;4.47;;;18.30;47.80;;;;;;4922019;29;20175;-85
2023/03/28 13:22:56;;;;;;;5.70;4.60;;;18.80;45.00;;;;;;4910305;29;20190;-83
2023/03/28 13:25:33;;;;;;;3.90;3.60;;;19.00;47.00;;;;;;4905687;29;20207;-85
2023/03/28 13:28:06;;;;;;;4.87;4.47;;;18.70;48.30;;;;;;4924696;29;20193;-85
2023/03/28 13:30:32;;;;;;;4.67;4.27;;;17.20;48.20;;;;;;4906296;29;20187;-83
2023/03/28 13:33:02;;;;;;;4.87;3.57;;;16.20;51.30;;;;;;4904577;29;20298;-85
2023/03/28 13:35:44;;;;;;;4.13;3.67;;;15.90;51.50;;;;;;4905076;29;20580;-85
2023/03/28 13:38:43;;;;;;;4.30;3.97;;;16.20;52.90;;;;;;4904780;29;20195;-84
2023/03/28 13:41:31;;;;;;;4.37;4.00;;;16.50;52.20;;;;;;4907748;29;20203;-85
2023/03/28 13:44:00;;;;;;;7.00;4.30;;;16.80;51.90;;;;;;4912552;29;20286;-84
2023/03/28 13:46:40;;;;;;;4.47;3.60;;;15.80;51.90;;;;;;4911743;29;20255;-83
2023/03/28 13:49:10;;;;;;;4.43;4.13;;;14.80;53.40;;;;;;4906029;29;20183;-86
2023/03/28 13:51:38;;;;;;;4.37;4.00;;;15.70;51.90;;;;;;4922427;29;20198;-85
2023/03/28 13:54:04;;;;;;;4.07;3.77;;;16.10;50.30;;;;;;4922086;29;20271;-86
2023/03/28 13:56:32;;;;;;;4.57;4.27;;;16.50;49.30;;;;;;4905217;29;20190;-84
2023/03/28 13:59:02;;;;;;;4.53;4.07;;;16.90;50.40;;;;;;4904860;29;20190;-84
2023/03/28 14:01:43;;;;;;;4.20;3.73;;;17.10;50.60;;;;;;4903932;29;20679;-84
2023/03/28 14:04:17;;;;;;;4.20;3.80;;;17.20;50.60;;;;;;4907346;29;20222;-86
2023/03/28 14:06:43;;;;;;;5.90;4.20;;;17.20;48.40;;;;;;4909510;29;20253;-85
2023/03/28 14:09:41;;;;;;;4.33;4.03;;;17.60;47.60;;;;;;4921340;29;20632;-85
2023/03/28 14:12:13;;;;;;;4.80;4.40;;;17.50;48.00;;;;;;4882876;29;20279;-86
2023/03/28 14:14:42;;;;;;;4.63;4.23;;;17.60;47.10;;;;;;4903715;29;20223;-85
2023/03/28 14:17:23;;;;;;;5.40;4.90;;;18.40;48.50;;;;;;4920214;29;20188;-85
2023/03/28 14:19:58;;;;;;;4.87;4.40;;;17.90;47.90;;;;;;4920039;29;20225;-85
2023/03/28 14:22:29;;;;;;;4.10;3.90;;;16.50;50.90;;;;;;4903465;29;20822;-85
2023/03/28 14:25:00;;;;;;;4.10;3.70;;;16.20;50.70;;;;;;4920340;29;20707;-85
2023/03/28 14:27:40;;;;;;;3.80;3.50;;;15.70;50.60;;;;;;4920379;29;20221;-85
2023/03/28 14:30:37;;;;;;;4.47;4.17;;;16.10;49.70;;;;;;4905964;29;20194;-84
2023/03/28 14:33:09;;;;;;;4.10;3.87;;;17.40;45.40;;;;;;4904076;29;20286;-84
2023/03/28 14:35:36;;;;;;;4.73;4.33;;;17.40;46.00;;;;;;4910730;29;20225;-85
2023/03/28 14:38:05;;;;;;;4.50;4.20;;;17.40;45.40;;;;;;4905081;29;20219;-85
2023/03/28 14:40:38;;;;;;;6.43;5.83;;;17.40;47.10;;;;;;4904603;29;20226;-86
2023/03/28 14:43:17;;;;;;;12.43;9.13;;;17.50;46.00;;;;;;4904449;29;20183;-85
2023/03/28 14:45:50;;;;;;;11.03;8.83;;;18.10;46.20;;;;;;4907998;29;20585;-84
2023/03/28 14:48:26;;;;;;;4.30;4.00;;;18.90;45.10;;;;;;4921055;29;20573;-83
2023/03/28 14:50:53;;;;;;;5.60;5.20;;;19.80;43.10;;;;;;4903984;29;20187;-84
2023/03/28 14:53:25;;;;;;;8.47;7.77;;;20.60;40.40;;;;;;4903840;29;20190;-85
2023/03/28 14:55:53;;;;;;;7.33;6.80;;;22.10;37.40;;;;;;4903979;29;20207;-85
2023/03/28 14:58:23;;;;;;;7.43;6.82;;;21.10;38.60;;;;;;4903404;29;20262;-84
2023/03/28 15:00:53;;;;;;;6.97;6.68;;;21.50;39.30;;;;;;4903958;29;20226;-85
2023/03/28 15:03:37;;;;;;;9.13;8.33;;;20.80;40.20;;;;;;4922520;29;20183;-83
2023/03/28 15:06:05;;;;;;;6.43;6.03;;;20.90;39.60;;;;;;4920565;29;20211;-84
2023/03/28 15:08:37;;;;;;;9.70;9.27;;;21.40;38.30;;;;;;4915158;29;20576;-86
2023/03/28 15:11:18;;;;;;;10.38;9.57;;;22.00;38.20;;;;;;4904812;29;20194;-85
2023/03/28 15:13:50;;;;;;;8.37;7.77;;;20.70;39.10;;;;;;4904837;29;20195;-84
2023/03/28 15:16:22;;;;;;;9.33;8.50;;;19.10;42.50;;;;;;4949188;23;20710;-77
2023/03/28 15:19:27;;;;;;;7.67;6.97;;;18.10;41.40;;;;;;4944750;29;20278;-78
2023/03/28 15:22:01;;;;;;;6.27;5.30;;;17.90;44.70;;;;;;4901505;29;20753;-79
2023/03/28 15:24:27;;;;;;;4.50;4.20;;;17.30;44.70;;;;;;4932326;29;20278;-78
2023/03/28 15:26:57;;;;;;;4.37;4.07;;;17.10;45.60;;;;;;4921206;29;20276;-78
2023/03/28 15:29:24;;;;;;;4.80;4.40;;;17.70;44.90;;;;;;4922144;29;20246;-79
2023/03/28 15:31:54;;;;;;;4.17;3.97;;;18.50;43.90;;;;;;4925206;29;20187;-77
2023/03/28 15:34:26;;;;;;;4.60;4.20;;;19.40;43.40;;;;;;4908828;29;20183;-80
2023/03/28 15:37:00;;;;;;;4.93;4.63;;;19.80;42.30;;;;;;4904323;29;20195;-78
2023/03/28 15:39:30;;;;;;;4.87;4.67;;;19.40;40.30;;;;;;4920565;29;20276;-78
2023/03/28 15:42:18;;;;;;;5.23;4.80;;;19.30;41.60;;;;;;4904233;29;20697;-78
2023/03/28 15:44:57;;;;;;;5.67;5.27;;;20.40;41.90;;;;;;4905482;29;20211;-79
2023/03/28 15:47:28;;;;;;;7.40;5.10;;;20.40;41.50;;;;;;4915281;29;20191;-76
2023/03/28 15:50:02;;;;;;;4.33;4.03;;;19.10;42.80;;;;;;4927547;29;20722;-79
2023/03/28 15:52:28;;;;;;;4.67;4.37;;;18.00;44.50;;;;;;4905928;29;20187;-77
2023/03/28 15:54:56;;;;;;;5.60;5.20;;;17.90;45.10;;;;;;4923009;29;20217;-78
2023/03/28 15:57:25;;;;;;;6.43;5.43;;;18.60;42.30;;;;;;4904619;29;20282;-78
2023/03/28 15:59:52;;;;;;;6.07;5.60;;;19.40;40.20;;;;;;4905665;29;20215;-77
2023/03/28 16:02:24;;;;;;;8.00;7.50;;;19.20;39.90;;;;;;4909827;29;20275;-77
2023/03/28 16:05:05;;;;;;;6.60;6.20;;;19.50;39.30;;;;;;4908820;29;20262;-77
2023/03/28 16:07:50;;;;;;;6.07;5.73;;;20.00;40.40;;;;;;4912224;29;20258;-78